Logo AVAMET
Benvolgut visitant, si us plau, ingressa Recuperar contrasenya

Salem

Dades diàries. Acumulats / Últims 30 dies disponibles

Data Temperatura (°C) Humitat rel. (%) Pressió rel. (hPa) Vent (km/h) Precipitació
Mínima Mitjana Màxima Amplitud
tèrmica
Mínima Mitjana Màxima Mínima Mitjana Màxima Predom. Mitjana Ràfega
màxima
Total
(mm)
Índex-n
Mínima Mitjana Màxima Mínima Mitjana Màxima n
0 a 1
P0 max
mm 5'
Dades mensuals acumulades fins l'últim dia disponible
05/2019 7,4 13,2 19,6 18,0 18,4 23,7 30,2 22,8 28 67 95 1.002 1.014 1.024   4,5 61,2 11,4
Dades anuals acumulades fins l'últim dia disponible
2019 0,2 9,1 19,6 13,4 9,6 18,4 30,2 30,0 15 62 96 994 1.018 1.035   4,5 74,0 479,6
Últims 30 dies disponibles
26-05-2019 13,6     18,8     23,7 10,1 55 65 76 1.014 1.016 1.018 SE 6,1 32,2 0,0
25-05-2019 13,5     15,6     19,7 6,2 58 78 91 1.014 1.016 1.018 ENE 2,4 22,5 1,8 0,39 0,60
24-05-2019 14,2     16,5     20,8 6,6 52 80 90 1.012 1.014 1.016 NW 3,2 33,8 1,2
23-05-2019 13,4     21,3     29,8 16,4 28 58 90 1.013 1.016 1.018 SSW 3,7 33,8 0,0
22-05-2019 12,2     18,3     26,4 14,2 36 73 91 1.016 1.017 1.019 ENE 4,5 33,8 0,0
21-05-2019 13,8     16,9     24,3 10,5 41 80 91 1.013 1.015 1.017 NW 3,7 33,8 2,8
20-05-2019 11,8     17,7     23,7 11,9 39 60 77 1.011 1.012 1.013 ESE 6,6 32,2 0,0
19-05-2019 11,3     16,2     21,6 10,3 30 59 87 1.009 1.010 1.012 ESE 2,7 24,1 0,0
18-05-2019 13,5     15,8     18,8 5,3 48 59 74 1.007 1.008 1.010 ENE 4,7 30,6 0,2
17-05-2019 14,4     18,0     21,7 7,3 37 52 88 1.002 1.005 1.010 OSO 8,9 61,2 0,0
16-05-2019 14,1     18,3     23,7 9,6 62 74 87 1.005 1.010 1.014 ENE 4,0 25,7 0,0
15-05-2019 14,7     19,4     26,7 12,0 38 59 86 1.009 1.011 1.014 ENE 5,1 29,0 0,0
14-05-2019 12,2     18,5     25,1 12,9 35 62 89 1.013 1.018 1.021 S 5,6 33,8 0,0
13-05-2019 13,4     17,8     22,8 9,4 37 65 90 1.018 1.019 1.020 ENE 3,5 24,1 0,0
12-05-2019 13,3     19,1     25,3 12,0 51 68 86 1.018 1.022 1.024 ENE 2,7 22,5 0,0
11-05-2019 17,6     21,9     25,1 7,5 43 59 65 1.014 1.017 1.022 ENE 4,7 32,2 0,0
10-05-2019 19,6     24,4     30,2 10,6 31 51 68 1.011 1.013 1.014 W 5,6 33,8 0,0
09-05-2019 17,9     21,5     26,3 8,4 48 60 73 1.011 1.012 1.014 W 7,6 35,4 0,0
08-05-2019 17,1     22,1     26,9 9,8 41 55 80 1.009 1.012 1.014 W 6,9 37,0 0,0
07-05-2019 11,4     19,5     27,1 15,7 47 71 95 1.013 1.016 1.019 ENE 2,3 24,1 0,0
06-05-2019 10,3     15,6     23,1 12,8 58 79 90 1.016 1.017 1.019 ENE 2,9 19,3 0,0
05-05-2019 10,1     15,8     22,3 12,2 48 66 84 1.012 1.014 1.017 ESE 4,2 30,6 0,0
04-05-2019 7,4     14,4     22,8 15,4 39 69 92 1.010 1.012 1.014 SE 3,7 35,4 0,2
03-05-2019 9,1     12,7     18,4 9,3 63 80 92 1.009 1.012 1.015 ENE 4,5 33,8 5,2
02-05-2019 11,6     14,8     19,1 7,5 68 81 92 1.013 1.014 1.016 ENE 3,4 22,5 0,0
01-05-2019 12,3     16,1     21,8 9,5 56 78 93 1.012 1.014 1.016 ENE 3,1 20,9 0,0
30-04-2019 12,5     16,9     22,6 10,1 56 77 93 1.014 1.016 1.018 S 4,3 29,0 0,0
29-04-2019 11,8     15,6     21,4 9,6 66 82 92 1.015 1.018 1.020 NW 2,7 22,5 0,0
28-04-2019 12,5     17,1     23,2 10,7 51 70 91 1.018 1.021 1.024 ENE 2,7 22,5 0,0
27-04-2019 11,4     16,9     23,2 11,8 40 55 70 1.022 1.024 1.026 ESE 3,5 24,1 0,0
Últims 13 mesos disponibles
04/2019 7,7 10,5 13,7 14,1 11,3 18,4 27,2 19,5 37 69 95 999 1.013 1.024 W 5,7 64,4 391,8
03/2019 5,2 9,2 16,1 13,8 11,4 19,0 27,1 21,9 33 56 92 1.010 1.022 1.030 ESE 4,1 56,3 69,2
02/2019 2,7 6,8 12,1 11,5 10,7 16,7 23,8 21,1 33 61 86 995 1.025 1.033 SE 4,3 74,0 0,6
01/2019 0,2 6,3 11,1 10,3 9,6 15,0 19,7 19,5 39 57 79 1.003 1.019 1.031 ESE 4,2 56,3 6,6
12/2018 4,7 8,7 12,9 12,7 11,4 17,6 23,8 19,1 42 64 94 1.009 1.025 1.031 ESE 2,7 53,1 31,2
11/2018 6,4 10,7 13,9 13,5 12,3 16,7 23,2 16,8 32 71 96 1.001 1.015 1.023 ESE 4,2 85,3 238,0
10/2018 6,1 13,9 18,2 17,3 12,1 21,5 29,4 23,3 45 70 93 1.000 1.014 1.025 ENE 3,6 56,3 85,4
09/2018 15,3 19,0 21,7 22,7 21,8 27,7 35,3 20,0 60 78 91 1.012 1.019 1.028 ENE 3,3 56,3 84,8
08/2018 18,8 21,7 24,8 26,2 25,2 31,7 36,9 18,1 46 68 83 1.011 1.016 1.021 ENE 5,3 54,7 3,6
07/2018 19,4 21,4 23,2 26,8 25,9 32,8 36,7 17,3 ENE 5,8 41,8 0,0
06/2018 13,1 17,8 20,8 22,9 22,0 28,7 35,2 22,1 ENE 5,2 41,8 36,2
05/2018 7,2 13,2 16,7 18,1 17,8 23,8 28,7 21,5 ENE 4,9 41,8 25,6
04/2018 7,2 10,9 15,4 15,0 11,3 19,8 28,2 21,0 ENE 6,1 70,8 8,0
Tots els anys disponibles
2018 0,7 13,3 24,8 17,4 5,0 22,3 36,9 36,2 32 70 96 1.000 1.018 1.031 ENE 4,9 85,3 705,0
2017 1,2 8,1 15,4 12,1 9,4 16,9 24,6 23,4 ESE 4,4 90,1
Temperatura (°C)
Humitat relativa (%)
Velocitat del vent i ràfega màxima (km/h)
Direcció del vent (°)
Pressió (hPa)
Precipitació (mm)
Nota sobre les dades: s'avisa a l'usuari de la provisionalitat i no oficialitat d'aquestes dades
Logo AVAMET blanc
Web allotjada a Sollutia
Llicència de Creative CommonsLa web d'AVAMET i els seus continguts estan subjectes a una llicència de
Reconeixement - No Comercial - Compartir igual
Properes estacions: Altea - Club Nàutic d'Altea (Soci), Ontinyent - El Pilar (Soci), Ares del Maestrat (Ajuntament Soci), Catadau - L'Altet (Inforatge)     - - - - -      Últimes estacions: Asp - Poliesportiu (Soci), Jacarilla - centro (MeteOrihuela), Elx - Maitino/Vallverda/Velarde/Matola/Ferriol (Soci TiempoElche.com), Orihuela - Playa Flamenca (MeteOrihuela), - - -